Terminal Aerodrome Forecast
Issued by NWS Charleston, WV

Current Version | Previous Version | Graphics & Text | Print | Product List | Glossary On
Versions: 1 2 3 4 5 6 7 8 9 10 11 12 13 14 15 16 17 18 19 20 21 22 23 24 25 26
955
FTUS41 KRLX 241321 AAA
TAFPKB
TAF AMD
KPKB 241321Z 2413/2512 24004KT P6SM BKN015
     FM241430 25007KT P6SM FEW060
     FM241700 26010G16KT P6SM FEW050
     FM242300 30008KT P6SM SCT060=

USA.gov is the U.S. government's official web portal to all federal, state and local government web resources and services.